EIN43F EIDW-LIMC
Flight info
| Callsign | EIN43F |
|---|---|
| Flight time | 2h 20m |
| Altitude | 37000 |
| Route | PESIT2J PESIT DCT BAKUR DCT GUBJE DCT DAVAZ DCT AVZAC DCT ICOSA DCT RUHUN DCT UNZIB DCT NUCHU L18 MID UL612 OGULO DCT OKASI/N0421F350 DCT OKEKO DCT MOU DCT MADIV DCT MOKIP DCT TUFTA DCT GEVEA DCT MOBLO/N0387F290 DCT LURAG/N0329F190 M135 ASTIG |
| Aircraft | A320/M-SDE3FGHIRWY/LB1 |
Departure
| Time | 2026-05-07 17:22 |
|---|---|
| Airport | Dublin Airport (EIDW) |
Arrival
| Time | 2026-05-07 19:42 |
|---|---|
| Airport | Milan Malpensa International Airport (LIMC) |
| Time | Latitude | Longitude | Altitude | Speed | Heading |
|---|---|---|---|---|---|
| 2026-05-07 16:56 | 53.42413 | -6.24439 | 251 ft | 0 kts | 136° |
| 2026-05-07 17:12 | 53.42422 | -6.24454 | 251 ft | 2 kts | 136° |
| 2026-05-07 17:13 | 53.42432 | -6.24472 | 251 ft | 2 kts | 134° |
| 2026-05-07 17:13 | 53.42443 | -6.24490 | 251 ft | 2 kts | 135° |
| 2026-05-07 17:13 | 53.42453 | -6.24503 | 251 ft | 2 kts | 176° |
| 2026-05-07 17:13 | 53.42466 | -6.24496 | 251 ft | 1 kts | 232° |
| 2026-05-07 17:14 | 53.42469 | -6.24487 | 251 ft | 1 kts | 248° |
| 2026-05-07 17:14 | 53.42471 | -6.24481 | 251 ft | 0 kts | 243° |
| 2026-05-07 17:15 | 53.42471 | -6.24482 | 250 ft | 0 kts | 243° |
| 2026-05-07 17:15 | 53.42464 | -6.24503 | 250 ft | 4 kts | 243° |
| 2026-05-07 17:16 | 53.42439 | -6.24582 | 251 ft | 10 kts | 243° |
| 2026-05-07 17:16 | 53.42390 | -6.24715 | 251 ft | 15 kts | 230° |
| 2026-05-07 17:16 | 53.42373 | -6.24855 | 251 ft | 12 kts | 311° |
| 2026-05-07 17:16 | 53.42454 | -6.24929 | 251 ft | 13 kts | 337° |
| 2026-05-07 17:17 | 53.42544 | -6.24991 | 250 ft | 14 kts | 339° |
| 2026-05-07 17:17 | 53.42637 | -6.25059 | 251 ft | 14 kts | 336° |
| 2026-05-07 17:17 | 53.42717 | -6.25156 | 250 ft | 14 kts | 302° |
| 2026-05-07 17:17 | 53.42797 | -6.25243 | 250 ft | 13 kts | 338° |
| 2026-05-07 17:18 | 53.42884 | -6.25305 | 250 ft | 13 kts | 337° |
| 2026-05-07 17:18 | 53.42980 | -6.25376 | 250 ft | 16 kts | 336° |
| 2026-05-07 17:18 | 53.43094 | -6.25459 | 250 ft | 19 kts | 338° |
| 2026-05-07 17:18 | 53.43221 | -6.25551 | 250 ft | 20 kts | 335° |
| 2026-05-07 17:19 | 53.43337 | -6.25636 | 250 ft | 13 kts | 337° |
| 2026-05-07 17:19 | 53.43407 | -6.25582 | 250 ft | 14 kts | 83° |
| 2026-05-07 17:19 | 53.43399 | -6.25415 | 250 ft | 14 kts | 97° |
| 2026-05-07 17:19 | 53.43388 | -6.25240 | 250 ft | 15 kts | 96° |
| 2026-05-07 17:20 | 53.43380 | -6.25060 | 250 ft | 15 kts | 93° |
| 2026-05-07 17:20 | 53.43372 | -6.24873 | 250 ft | 16 kts | 96° |
| 2026-05-07 17:20 | 53.43361 | -6.24681 | 250 ft | 16 kts | 94° |
| 2026-05-07 17:20 | 53.43417 | -6.24547 | 250 ft | 16 kts | 359° |
| 2026-05-07 17:21 | 53.43521 | -6.24585 | 250 ft | 13 kts | 298° |
| 2026-05-07 17:21 | 53.43535 | -6.24763 | 250 ft | 19 kts | 275° |
| 2026-05-07 17:21 | 53.43559 | -6.25187 | 251 ft | 69 kts | 275° |
| 2026-05-07 17:21 | 53.43627 | -6.26419 | 251 ft | 137 kts | 275° |
| 2026-05-07 17:22 | 53.43744 | -6.28268 | 366 ft | 177 kts | 275° |
| 2026-05-07 17:22 | 53.43879 | -6.30415 | 814 ft | 193 kts | 273° |
| 2026-05-07 17:22 | 53.43975 | -6.32718 | 1336 ft | 213 kts | 272° |
| 2026-05-07 17:22 | 53.44259 | -6.35379 | 1635 ft | 249 kts | 289° |
| 2026-05-07 17:23 | 53.45301 | -6.37697 | 2365 ft | 251 kts | 327° |
| 2026-05-07 17:23 | 53.46851 | -6.38916 | 3236 ft | 252 kts | 335° |
| 2026-05-07 17:23 | 53.48331 | -6.40511 | 4026 ft | 261 kts | 318° |
| 2026-05-07 17:23 | 53.49592 | -6.42676 | 4928 ft | 263 kts | 309° |
| 2026-05-07 17:24 | 53.50697 | -6.45144 | 5825 ft | 266 kts | 296° |
| 2026-05-07 17:24 | 53.51118 | -6.48089 | 6702 ft | 263 kts | 264° |
| 2026-05-07 17:24 | 53.50626 | -6.50930 | 7567 ft | 259 kts | 237° |
| 2026-05-07 17:24 | 53.49399 | -6.53059 | 8320 ft | 259 kts | 211° |
| 2026-05-07 17:25 | 53.47686 | -6.54000 | 8795 ft | 262 kts | 184° |
| 2026-05-07 17:25 | 53.45878 | -6.53518 | 8954 ft | 265 kts | 164° |
| 2026-05-07 17:25 | 53.44144 | -6.52518 | 8966 ft | 265 kts | 164° |
| 2026-05-07 17:25 | 53.42368 | -6.51516 | 8939 ft | 264 kts | 164° |
| 2026-05-07 17:26 | 53.40639 | -6.50559 | 8920 ft | 264 kts | 165° |
| 2026-05-07 17:26 | 53.38880 | -6.49596 | 8912 ft | 264 kts | 165° |
| 2026-05-07 17:26 | 53.37131 | -6.48645 | 8909 ft | 263 kts | 165° |
| 2026-05-07 17:26 | 53.35389 | -6.47698 | 8921 ft | 263 kts | 165° |
| 2026-05-07 17:27 | 53.33667 | -6.46765 | 8928 ft | 263 kts | 165° |
| 2026-05-07 17:27 | 53.31923 | -6.45803 | 8931 ft | 263 kts | 163° |
| 2026-05-07 17:27 | 53.30192 | -6.44623 | 8963 ft | 267 kts | 158° |
| 2026-05-07 17:27 | 53.28496 | -6.43309 | 9369 ft | 278 kts | 158° |
| 2026-05-07 17:28 | 53.26769 | -6.41966 | 10349 ft | 274 kts | 158° |
| 2026-05-07 17:28 | 53.25034 | -6.40620 | 11016 ft | 284 kts | 158° |
| 2026-05-07 17:28 | 53.23200 | -6.39204 | 11442 ft | 301 kts | 158° |
| 2026-05-07 17:28 | 53.21248 | -6.37699 | 11899 ft | 316 kts | 158° |
| 2026-05-07 17:29 | 53.19241 | -6.36141 | 12588 ft | 324 kts | 158° |
| 2026-05-07 17:29 | 53.17202 | -6.34560 | 13405 ft | 325 kts | 158° |
| 2026-05-07 17:29 | 53.15148 | -6.32972 | 14167 ft | 329 kts | 158° |
| 2026-05-07 17:29 | 53.13065 | -6.31369 | 14891 ft | 332 kts | 158° |
| 2026-05-07 17:30 | 53.10987 | -6.29770 | 15565 ft | 336 kts | 158° |
| 2026-05-07 17:30 | 53.08862 | -6.28142 | 16255 ft | 340 kts | 158° |
| 2026-05-07 17:30 | 53.06711 | -6.26495 | 16947 ft | 344 kts | 158° |
| 2026-05-07 17:30 | 53.04533 | -6.24827 | 17648 ft | 348 kts | 158° |
| 2026-05-07 17:31 | 53.02333 | -6.23142 | 18337 ft | 351 kts | 158° |
| 2026-05-07 17:31 | 53.00117 | -6.21446 | 19003 ft | 355 kts | 158° |
| 2026-05-07 17:31 | 52.97872 | -6.19731 | 19657 ft | 359 kts | 158° |
| 2026-05-07 17:31 | 52.95607 | -6.18001 | 20279 ft | 363 kts | 158° |
| 2026-05-07 17:32 | 52.93307 | -6.16240 | 20888 ft | 366 kts | 158° |
| 2026-05-07 17:32 | 52.90993 | -6.14459 | 21486 ft | 370 kts | 158° |
| 2026-05-07 17:32 | 52.88675 | -6.12675 | 22069 ft | 373 kts | 158° |
| 2026-05-07 17:32 | 52.86295 | -6.10846 | 22627 ft | 376 kts | 158° |
| 2026-05-07 17:33 | 52.83943 | -6.09040 | 22947 ft | 378 kts | 158° |
| 2026-05-07 17:33 | 52.81553 | -6.07207 | 23031 ft | 377 kts | 158° |
| 2026-05-07 17:33 | 52.79178 | -6.05388 | 23088 ft | 376 kts | 158° |
| 2026-05-07 17:33 | 52.76781 | -6.03555 | 23055 ft | 375 kts | 158° |
| 2026-05-07 17:34 | 52.74426 | -6.01756 | 23026 ft | 375 kts | 158° |
| 2026-05-07 17:34 | 52.72049 | -5.99944 | 23012 ft | 375 kts | 158° |
| 2026-05-07 17:34 | 52.69688 | -5.98147 | 23005 ft | 375 kts | 158° |
| 2026-05-07 17:34 | 52.67339 | -5.96360 | 22982 ft | 375 kts | 158° |
| 2026-05-07 17:35 | 52.64961 | -5.94554 | 22968 ft | 375 kts | 158° |
| 2026-05-07 17:35 | 52.62574 | -5.92743 | 22961 ft | 376 kts | 158° |
| 2026-05-07 17:35 | 52.60189 | -5.90935 | 22959 ft | 376 kts | 158° |
| 2026-05-07 17:35 | 52.57813 | -5.89136 | 22959 ft | 376 kts | 158° |
| 2026-05-07 17:36 | 52.55417 | -5.87324 | 22960 ft | 376 kts | 158° |
| 2026-05-07 17:36 | 52.53046 | -5.85532 | 22961 ft | 376 kts | 158° |
| 2026-05-07 17:36 | 52.50662 | -5.83734 | 22961 ft | 377 kts | 158° |
| 2026-05-07 17:36 | 52.48284 | -5.81942 | 22972 ft | 377 kts | 158° |
| 2026-05-07 17:37 | 52.45904 | -5.80152 | 22979 ft | 377 kts | 158° |
| 2026-05-07 17:37 | 52.43549 | -5.78382 | 22984 ft | 377 kts | 158° |
| 2026-05-07 17:37 | 52.41140 | -5.76625 | 22987 ft | 377 kts | 160° |
| 2026-05-07 17:37 | 52.38708 | -5.75117 | 22986 ft | 376 kts | 163° |
| 2026-05-07 17:38 | 52.36190 | -5.73838 | 23176 ft | 382 kts | 166° |
| 2026-05-07 17:38 | 52.33669 | -5.72615 | 23679 ft | 383 kts | 166° |
| 2026-05-07 17:38 | 52.31122 | -5.71378 | 24150 ft | 384 kts | 166° |
| 2026-05-07 17:38 | 52.28539 | -5.70124 | 24623 ft | 387 kts | 166° |
| 2026-05-07 17:39 | 52.25955 | -5.68867 | 25100 ft | 390 kts | 165° |
| 2026-05-07 17:39 | 52.23380 | -5.67436 | 25574 ft | 395 kts | 161° |
| 2026-05-07 17:39 | 52.20812 | -5.65748 | 26042 ft | 398 kts | 160° |
| 2026-05-07 17:39 | 52.18277 | -5.64035 | 26523 ft | 401 kts | 160° |
| 2026-05-07 17:40 | 52.15686 | -5.62288 | 27008 ft | 403 kts | 160° |
| 2026-05-07 17:40 | 52.13087 | -5.60538 | 27487 ft | 406 kts | 160° |
| 2026-05-07 17:40 | 52.10479 | -5.58785 | 27963 ft | 408 kts | 160° |
| 2026-05-07 17:40 | 52.07834 | -5.57008 | 28423 ft | 410 kts | 160° |
| 2026-05-07 17:41 | 52.05169 | -5.55222 | 28866 ft | 413 kts | 160° |
| 2026-05-07 17:41 | 52.02526 | -5.53415 | 29294 ft | 416 kts | 158° |
| 2026-05-07 17:41 | 51.99903 | -5.51524 | 29717 ft | 418 kts | 158° |
| 2026-05-07 17:41 | 51.97223 | -5.49571 | 30149 ft | 421 kts | 158° |
| 2026-05-07 17:42 | 51.94625 | -5.47525 | 30556 ft | 425 kts | 153° |
| 2026-05-07 17:42 | 51.92104 | -5.44916 | 31031 ft | 426 kts | 146° |
| 2026-05-07 17:42 | 51.89848 | -5.41900 | 31552 ft | 427 kts | 139° |
| 2026-05-07 17:42 | 51.87800 | -5.38413 | 32068 ft | 427 kts | 131° |
| 2026-05-07 17:43 | 51.86037 | -5.34573 | 32555 ft | 428 kts | 126° |
| 2026-05-07 17:43 | 51.84570 | -5.30402 | 33022 ft | 428 kts | 119° |
| 2026-05-07 17:43 | 51.83305 | -5.26074 | 33487 ft | 427 kts | 117° |
| 2026-05-07 17:43 | 51.82067 | -5.21702 | 33941 ft | 426 kts | 117° |
| 2026-05-07 17:44 | 51.80828 | -5.17348 | 34390 ft | 425 kts | 117° |
| 2026-05-07 17:44 | 51.79610 | -5.12993 | 34839 ft | 424 kts | 115° |
| 2026-05-07 17:44 | 51.78536 | -5.08587 | 35265 ft | 424 kts | 112° |
| 2026-05-07 17:44 | 51.77620 | -5.04078 | 35586 ft | 424 kts | 109° |
| 2026-05-07 17:45 | 51.76870 | -4.99480 | 35858 ft | 426 kts | 105° |
| 2026-05-07 17:45 | 51.76276 | -4.94804 | 36116 ft | 428 kts | 103° |
| 2026-05-07 17:45 | 51.75724 | -4.90119 | 36375 ft | 429 kts | 103° |
| 2026-05-07 17:45 | 51.75166 | -4.85368 | 36538 ft | 429 kts | 103° |
| 2026-05-07 17:46 | 51.74614 | -4.80702 | 36675 ft | 430 kts | 103° |
| 2026-05-07 17:46 | 51.74048 | -4.75952 | 36808 ft | 431 kts | 103° |
| 2026-05-07 17:46 | 51.73482 | -4.71229 | 36935 ft | 432 kts | 103° |
| 2026-05-07 17:46 | 51.72912 | -4.66498 | 36997 ft | 433 kts | 103° |
| 2026-05-07 17:47 | 51.71757 | -4.56971 | 36984 ft | 433 kts | 103° |
| 2026-05-07 17:47 | 51.70598 | -4.47480 | 36993 ft | 434 kts | 103° |
| 2026-05-07 17:48 | 51.69424 | -4.37942 | 37003 ft | 434 kts | 103° |
| 2026-05-07 17:48 | 51.68248 | -4.28454 | 37008 ft | 434 kts | 103° |
| 2026-05-07 17:49 | 51.67063 | -4.18962 | 37011 ft | 434 kts | 103° |
| 2026-05-07 17:49 | 51.65863 | -4.09417 | 37012 ft | 433 kts | 103° |
| 2026-05-07 17:50 | 51.64663 | -3.99942 | 37014 ft | 433 kts | 103° |
| 2026-05-07 17:50 | 51.63457 | -3.90492 | 37015 ft | 433 kts | 103° |
| 2026-05-07 17:51 | 51.62246 | -3.81053 | 37015 ft | 433 kts | 103° |
| 2026-05-07 17:51 | 51.61018 | -3.71560 | 37016 ft | 433 kts | 103° |
| 2026-05-07 17:52 | 51.59806 | -3.62122 | 37016 ft | 434 kts | 102° |
| 2026-05-07 17:52 | 51.59029 | -3.52524 | 37017 ft | 435 kts | 97° |
| 2026-05-07 17:53 | 51.58470 | -3.42825 | 37016 ft | 435 kts | 96° |
| 2026-05-07 17:53 | 51.57907 | -3.33148 | 37015 ft | 435 kts | 97° |
| 2026-05-07 17:54 | 51.57335 | -3.23539 | 37015 ft | 435 kts | 97° |
| 2026-05-07 17:54 | 51.56747 | -3.13834 | 37014 ft | 435 kts | 97° |
| 2026-05-07 17:55 | 51.56152 | -3.04140 | 37014 ft | 435 kts | 97° |
| 2026-05-07 17:55 | 51.55543 | -2.94374 | 37014 ft | 435 kts | 97° |
| 2026-05-07 17:56 | 51.54932 | -2.84703 | 37014 ft | 435 kts | 97° |
| 2026-05-07 17:56 | 51.54312 | -2.75004 | 37013 ft | 435 kts | 97° |
| 2026-05-07 17:57 | 51.53684 | -2.65321 | 37013 ft | 435 kts | 97° |
| 2026-05-07 17:57 | 51.53046 | -2.55619 | 37012 ft | 435 kts | 97° |
| 2026-05-07 17:58 | 51.52408 | -2.46008 | 37011 ft | 435 kts | 97° |
| 2026-05-07 17:58 | 51.51757 | -2.36340 | 37011 ft | 435 kts | 97° |
| 2026-05-07 17:59 | 51.51096 | -2.26644 | 37010 ft | 435 kts | 98° |
| 2026-05-07 17:59 | 51.50426 | -2.16939 | 37010 ft | 435 kts | 98° |
| 2026-05-07 18:00 | 51.49748 | -2.07264 | 37011 ft | 434 kts | 98° |
| 2026-05-07 18:00 | 51.49061 | -1.97563 | 37013 ft | 434 kts | 98° |
| 2026-05-07 18:01 | 51.48365 | -1.87836 | 37016 ft | 434 kts | 98° |
| 2026-05-07 18:01 | 51.47640 | -1.78183 | 37016 ft | 434 kts | 100° |
| 2026-05-07 18:02 | 51.45484 | -1.63956 | 37018 ft | 432 kts | 110° |
| 2026-05-07 18:03 | 51.43189 | -1.55014 | 37021 ft | 430 kts | 116° |
| 2026-05-07 18:03 | 51.40617 | -1.46289 | 37022 ft | 430 kts | 116° |
| 2026-05-07 18:04 | 51.38049 | -1.37579 | 37023 ft | 431 kts | 116° |
| 2026-05-07 18:04 | 51.35496 | -1.28935 | 37023 ft | 431 kts | 117° |
| 2026-05-07 18:05 | 51.32672 | -1.20460 | 37027 ft | 429 kts | 124° |
| 2026-05-07 18:05 | 51.29299 | -1.12685 | 37029 ft | 428 kts | 129° |
| 2026-05-07 18:06 | 51.25704 | -1.05140 | 36999 ft | 430 kts | 130° |
| 2026-05-07 18:06 | 51.22058 | -0.97446 | 37008 ft | 432 kts | 130° |
| 2026-05-07 18:07 | 51.18045 | -0.90304 | 37031 ft | 428 kts | 143° |
| 2026-05-07 18:07 | 51.13320 | -0.84288 | 37039 ft | 428 kts | 144° |
| 2026-05-07 18:08 | 51.08590 | -0.78334 | 37042 ft | 428 kts | 144° |
| 2026-05-07 18:08 | 51.03879 | -0.72368 | 37043 ft | 428 kts | 144° |
| 2026-05-07 18:09 | 50.99180 | -0.66412 | 37045 ft | 428 kts | 144° |
| 2026-05-07 18:09 | 50.94465 | -0.60445 | 37045 ft | 428 kts | 144° |
| 2026-05-07 18:10 | 50.89748 | -0.54489 | 37045 ft | 428 kts | 144° |
| 2026-05-07 18:10 | 50.85110 | -0.48649 | 37045 ft | 428 kts | 144° |
| 2026-05-07 18:11 | 50.80428 | -0.42768 | 37045 ft | 428 kts | 144° |
| 2026-05-07 18:11 | 50.75780 | -0.36942 | 37044 ft | 428 kts | 144° |
| 2026-05-07 18:12 | 50.71112 | -0.31105 | 37044 ft | 428 kts | 144° |
| 2026-05-07 18:12 | 50.66456 | -0.25300 | 37044 ft | 428 kts | 144° |
| 2026-05-07 18:13 | 50.61783 | -0.19491 | 37043 ft | 427 kts | 144° |
| 2026-05-07 18:13 | 50.57155 | -0.13753 | 37043 ft | 427 kts | 144° |
| 2026-05-07 18:14 | 50.52490 | -0.07983 | 37044 ft | 427 kts | 144° |
| 2026-05-07 18:14 | 50.47851 | -0.02264 | 37044 ft | 427 kts | 144° |
| 2026-05-07 18:15 | 50.43064 | 0.03218 | 37044 ft | 425 kts | 149° |
| 2026-05-07 18:15 | 50.38132 | 0.08299 | 37056 ft | 425 kts | 149° |
| 2026-05-07 18:16 | 50.33194 | 0.13395 | 37074 ft | 426 kts | 149° |
| 2026-05-07 18:16 | 50.28261 | 0.18478 | 37067 ft | 427 kts | 149° |
| 2026-05-07 18:17 | 50.23312 | 0.23559 | 37052 ft | 427 kts | 149° |
| 2026-05-07 18:17 | 50.18377 | 0.28624 | 37046 ft | 427 kts | 149° |
| 2026-05-07 18:18 | 50.13447 | 0.33696 | 37043 ft | 427 kts | 149° |
| 2026-05-07 18:18 | 50.08518 | 0.38754 | 37040 ft | 427 kts | 149° |
| 2026-05-07 18:19 | 50.03578 | 0.43809 | 37037 ft | 427 kts | 149° |
| 2026-05-07 18:19 | 49.98626 | 0.48862 | 37034 ft | 427 kts | 149° |
| 2026-05-07 18:20 | 49.93680 | 0.53896 | 37031 ft | 427 kts | 149° |
| 2026-05-07 18:20 | 49.88702 | 0.58949 | 37029 ft | 427 kts | 149° |
| 2026-05-07 18:21 | 49.83860 | 0.64298 | 37027 ft | 429 kts | 143° |
| 2026-05-07 18:21 | 49.79262 | 0.70096 | 37024 ft | 429 kts | 144° |
| 2026-05-07 18:22 | 49.74645 | 0.75902 | 37021 ft | 429 kts | 144° |
| 2026-05-07 18:22 | 49.70001 | 0.81725 | 37020 ft | 429 kts | 144° |
| 2026-05-07 18:23 | 49.65374 | 0.87512 | 37018 ft | 430 kts | 144° |
| 2026-05-07 18:23 | 49.60741 | 0.93292 | 37017 ft | 430 kts | 144° |
| 2026-05-07 18:24 | 49.56081 | 0.99092 | 37016 ft | 430 kts | 144° |
| 2026-05-07 18:24 | 49.51457 | 1.04831 | 37016 ft | 430 kts | 144° |
| 2026-05-07 18:25 | 49.46805 | 1.10595 | 37015 ft | 430 kts | 144° |
| 2026-05-07 18:25 | 49.42153 | 1.16339 | 37015 ft | 430 kts | 144° |
| 2026-05-07 18:26 | 49.37476 | 1.22102 | 37014 ft | 431 kts | 144° |
| 2026-05-07 18:26 | 49.32833 | 1.27812 | 37014 ft | 430 kts | 144° |
| 2026-05-07 18:27 | 49.28148 | 1.33557 | 37014 ft | 431 kts | 144° |
| 2026-05-07 18:27 | 49.23482 | 1.39263 | 37014 ft | 431 kts | 144° |
| 2026-05-07 18:28 | 49.18802 | 1.44978 | 37015 ft | 431 kts | 144° |
| 2026-05-07 18:28 | 49.14128 | 1.50668 | 37015 ft | 431 kts | 144° |
| 2026-05-07 18:29 | 49.09434 | 1.56366 | 37015 ft | 431 kts | 144° |
| 2026-05-07 18:29 | 49.04771 | 1.62012 | 37016 ft | 431 kts | 144° |
| 2026-05-07 18:30 | 49.00059 | 1.67707 | 37015 ft | 431 kts | 145° |
| 2026-05-07 18:30 | 48.95378 | 1.73351 | 37014 ft | 431 kts | 145° |
| 2026-05-07 18:31 | 48.90670 | 1.79010 | 37014 ft | 431 kts | 145° |
| 2026-05-07 18:31 | 48.85968 | 1.84647 | 37015 ft | 431 kts | 145° |
| 2026-05-07 18:32 | 48.81274 | 1.90261 | 37015 ft | 431 kts | 145° |
| 2026-05-07 18:32 | 48.76576 | 1.95866 | 37015 ft | 431 kts | 145° |
| 2026-05-07 18:33 | 48.71874 | 2.01461 | 37014 ft | 431 kts | 145° |
| 2026-05-07 18:33 | 48.67165 | 2.07049 | 37012 ft | 431 kts | 145° |
| 2026-05-07 18:34 | 48.62443 | 2.12633 | 37009 ft | 432 kts | 145° |
| 2026-05-07 18:34 | 48.57722 | 2.18294 | 37010 ft | 434 kts | 142° |
| 2026-05-07 18:35 | 48.53344 | 2.24550 | 37014 ft | 436 kts | 138° |
| 2026-05-07 18:35 | 48.49076 | 2.31040 | 37014 ft | 436 kts | 138° |
| 2026-05-07 18:36 | 48.44837 | 2.37466 | 37014 ft | 436 kts | 138° |
| 2026-05-07 18:36 | 48.40565 | 2.43919 | 37015 ft | 437 kts | 138° |
| 2026-05-07 18:37 | 48.36278 | 2.50377 | 37019 ft | 437 kts | 138° |
| 2026-05-07 18:37 | 48.31930 | 2.56662 | 37024 ft | 435 kts | 142° |
| 2026-05-07 18:38 | 48.27184 | 2.62174 | 37027 ft | 432 kts | 148° |
| 2026-05-07 18:38 | 48.22047 | 2.66712 | 37027 ft | 429 kts | 155° |
| 2026-05-07 18:39 | 48.16826 | 2.70975 | 37026 ft | 429 kts | 155° |
| 2026-05-07 18:39 | 48.11578 | 2.75201 | 37026 ft | 429 kts | 155° |
| 2026-05-07 18:40 | 48.06274 | 2.79127 | 37025 ft | 426 kts | 161° |
| 2026-05-07 18:40 | 48.00822 | 2.82595 | 37026 ft | 427 kts | 161° |
| 2026-05-07 18:41 | 47.95358 | 2.86068 | 37025 ft | 427 kts | 161° |
| 2026-05-07 18:41 | 47.89995 | 2.89470 | 37025 ft | 427 kts | 161° |
| 2026-05-07 18:42 | 47.84483 | 2.92960 | 37024 ft | 426 kts | 161° |
| 2026-05-07 18:42 | 47.79039 | 2.96398 | 37021 ft | 426 kts | 161° |
| 2026-05-07 18:43 | 47.73598 | 2.99824 | 37016 ft | 426 kts | 161° |
| 2026-05-07 18:43 | 47.68133 | 3.03257 | 37011 ft | 426 kts | 161° |
| 2026-05-07 18:44 | 47.62702 | 3.06664 | 37008 ft | 426 kts | 161° |
| 2026-05-07 18:44 | 47.57260 | 3.10063 | 37007 ft | 426 kts | 161° |
| 2026-05-07 18:45 | 47.51796 | 3.13468 | 37005 ft | 426 kts | 161° |
| 2026-05-07 18:45 | 47.46365 | 3.16847 | 37004 ft | 426 kts | 161° |
| 2026-05-07 18:46 | 47.40892 | 3.20245 | 37002 ft | 426 kts | 161° |
| 2026-05-07 18:46 | 47.35437 | 3.23626 | 37001 ft | 426 kts | 161° |
| 2026-05-07 18:47 | 47.29991 | 3.26994 | 36999 ft | 426 kts | 161° |
| 2026-05-07 18:47 | 47.24533 | 3.30361 | 36994 ft | 426 kts | 161° |
| 2026-05-07 18:47 | 47.21820 | 3.32032 | 36801 ft | 427 kts | 161° |
| 2026-05-07 18:48 | 47.19074 | 3.33723 | 36599 ft | 426 kts | 161° |
| 2026-05-07 18:48 | 47.16370 | 3.35385 | 36399 ft | 426 kts | 161° |
| 2026-05-07 18:48 | 47.13633 | 3.37066 | 36203 ft | 426 kts | 161° |
| 2026-05-07 18:48 | 47.10902 | 3.38742 | 36009 ft | 426 kts | 161° |
| 2026-05-07 18:49 | 47.08171 | 3.40415 | 35815 ft | 426 kts | 161° |
| 2026-05-07 18:49 | 47.05425 | 3.42096 | 35618 ft | 427 kts | 161° |
| 2026-05-07 18:49 | 47.02709 | 3.43757 | 35423 ft | 427 kts | 161° |
| 2026-05-07 18:49 | 46.99967 | 3.45430 | 35226 ft | 427 kts | 161° |
| 2026-05-07 18:50 | 46.97211 | 3.47110 | 35051 ft | 427 kts | 161° |
| 2026-05-07 18:50 | 46.91744 | 3.50438 | 34990 ft | 427 kts | 161° |
| 2026-05-07 18:51 | 46.86266 | 3.53765 | 34972 ft | 427 kts | 161° |
| 2026-05-07 18:51 | 46.80796 | 3.57079 | 34976 ft | 427 kts | 161° |
| 2026-05-07 18:52 | 46.75493 | 3.61130 | 34983 ft | 435 kts | 147° |
| 2026-05-07 18:52 | 46.71224 | 3.67450 | 34985 ft | 445 kts | 129° |
| 2026-05-07 18:53 | 46.68515 | 3.75550 | 34985 ft | 454 kts | 109° |
| 2026-05-07 18:53 | 46.67017 | 3.84464 | 34985 ft | 455 kts | 105° |
| 2026-05-07 18:54 | 46.65553 | 3.93411 | 34984 ft | 455 kts | 107° |
| 2026-05-07 18:54 | 46.64025 | 4.02305 | 34986 ft | 455 kts | 107° |
| 2026-05-07 18:55 | 46.62471 | 4.11241 | 34988 ft | 455 kts | 107° |
| 2026-05-07 18:55 | 46.60913 | 4.20155 | 34988 ft | 456 kts | 107° |
| 2026-05-07 18:56 | 46.59352 | 4.29045 | 34989 ft | 457 kts | 107° |
| 2026-05-07 18:56 | 46.57777 | 4.37975 | 34992 ft | 457 kts | 107° |
| 2026-05-07 18:57 | 46.56198 | 4.46879 | 34992 ft | 457 kts | 107° |
| 2026-05-07 18:57 | 46.54603 | 4.55836 | 34990 ft | 457 kts | 107° |
| 2026-05-07 18:58 | 46.53004 | 4.64766 | 34993 ft | 458 kts | 107° |
| 2026-05-07 18:58 | 46.51398 | 4.73691 | 35000 ft | 457 kts | 108° |
| 2026-05-07 18:59 | 46.49789 | 4.82594 | 35004 ft | 458 kts | 108° |
| 2026-05-07 18:59 | 46.48169 | 4.91505 | 35001 ft | 458 kts | 107° |
| 2026-05-07 19:00 | 46.46539 | 5.00425 | 34997 ft | 458 kts | 107° |
| 2026-05-07 19:00 | 46.44906 | 5.09323 | 34995 ft | 458 kts | 107° |
| 2026-05-07 19:01 | 46.43257 | 5.18293 | 34995 ft | 459 kts | 107° |
| 2026-05-07 19:01 | 46.41615 | 5.27186 | 34996 ft | 459 kts | 107° |
| 2026-05-07 19:02 | 46.39961 | 5.36084 | 35000 ft | 460 kts | 108° |
| 2026-05-07 19:02 | 46.38289 | 5.45047 | 35007 ft | 460 kts | 107° |
| 2026-05-07 19:03 | 46.36621 | 5.54031 | 35014 ft | 461 kts | 107° |
| 2026-05-07 19:03 | 46.34958 | 5.62933 | 35020 ft | 462 kts | 108° |
| 2026-05-07 19:04 | 46.33266 | 5.71941 | 35028 ft | 462 kts | 108° |
| 2026-05-07 19:04 | 46.31571 | 5.80915 | 35034 ft | 462 kts | 108° |
| 2026-05-07 19:05 | 46.29868 | 5.89883 | 35026 ft | 463 kts | 108° |
| 2026-05-07 19:05 | 46.28150 | 5.98886 | 35010 ft | 463 kts | 108° |
| 2026-05-07 19:06 | 46.26129 | 6.07632 | 34994 ft | 459 kts | 118° |
| 2026-05-07 19:06 | 46.22970 | 6.15514 | 34986 ft | 452 kts | 131° |
| 2026-05-07 19:06 | 46.21003 | 6.19003 | 34985 ft | 448 kts | 137° |
| 2026-05-07 19:07 | 46.16524 | 6.25232 | 34988 ft | 445 kts | 142° |
| 2026-05-07 19:07 | 46.11934 | 6.31292 | 35003 ft | 446 kts | 142° |
| 2026-05-07 19:08 | 46.07391 | 6.37320 | 35022 ft | 446 kts | 142° |
| 2026-05-07 19:08 | 46.02837 | 6.43375 | 35021 ft | 446 kts | 142° |
| 2026-05-07 19:09 | 45.98273 | 6.49438 | 34920 ft | 446 kts | 142° |
| 2026-05-07 19:09 | 45.93747 | 6.55439 | 34769 ft | 446 kts | 142° |
| 2026-05-07 19:10 | 45.89181 | 6.61478 | 34879 ft | 446 kts | 142° |
| 2026-05-07 19:10 | 45.86903 | 6.64485 | 35027 ft | 447 kts | 142° |
| 2026-05-07 19:10 | 45.84627 | 6.67483 | 35113 ft | 446 kts | 143° |
| 2026-05-07 19:11 | 45.80052 | 6.73502 | 35063 ft | 446 kts | 143° |
| 2026-05-07 19:11 | 45.75482 | 6.79477 | 34776 ft | 440 kts | 144° |
| 2026-05-07 19:12 | 45.73234 | 6.82411 | 34461 ft | 437 kts | 144° |
| 2026-05-07 19:12 | 45.70982 | 6.85341 | 33967 ft | 439 kts | 144° |
| 2026-05-07 19:12 | 45.68726 | 6.88269 | 33237 ft | 443 kts | 144° |
| 2026-05-07 19:12 | 45.66437 | 6.91240 | 32469 ft | 447 kts | 144° |
| 2026-05-07 19:13 | 45.64131 | 6.94224 | 31656 ft | 452 kts | 144° |
| 2026-05-07 19:13 | 45.61799 | 6.97238 | 30790 ft | 458 kts | 143° |
| 2026-05-07 19:13 | 45.59419 | 7.00314 | 29824 ft | 463 kts | 143° |
| 2026-05-07 19:13 | 45.57044 | 7.03391 | 28917 ft | 465 kts | 143° |
| 2026-05-07 19:14 | 45.54670 | 7.06462 | 28195 ft | 462 kts | 143° |
| 2026-05-07 19:14 | 45.52289 | 7.09545 | 27497 ft | 457 kts | 143° |
| 2026-05-07 19:14 | 45.49952 | 7.12578 | 26799 ft | 454 kts | 142° |
| 2026-05-07 19:14 | 45.47650 | 7.15569 | 26107 ft | 451 kts | 142° |
| 2026-05-07 19:15 | 45.45345 | 7.18563 | 25575 ft | 444 kts | 142° |
| 2026-05-07 19:15 | 45.43090 | 7.21489 | 25125 ft | 436 kts | 141° |
| 2026-05-07 19:15 | 45.40869 | 7.24369 | 24740 ft | 428 kts | 141° |
| 2026-05-07 19:15 | 45.38695 | 7.27182 | 24349 ft | 421 kts | 141° |
| 2026-05-07 19:16 | 45.36553 | 7.29949 | 23965 ft | 415 kts | 141° |
| 2026-05-07 19:16 | 45.34429 | 7.32689 | 23512 ft | 409 kts | 140° |
| 2026-05-07 19:16 | 45.32344 | 7.35377 | 23083 ft | 400 kts | 140° |
| 2026-05-07 19:16 | 45.30322 | 7.37984 | 22673 ft | 393 kts | 140° |
| 2026-05-07 19:17 | 45.28294 | 7.40595 | 22262 ft | 389 kts | 140° |
| 2026-05-07 19:17 | 45.26322 | 7.43130 | 21916 ft | 385 kts | 140° |
| 2026-05-07 19:17 | 45.24333 | 7.45686 | 21676 ft | 383 kts | 140° |
| 2026-05-07 19:17 | 45.22366 | 7.48211 | 21436 ft | 381 kts | 140° |
| 2026-05-07 19:18 | 45.20418 | 7.50708 | 21191 ft | 380 kts | 140° |
| 2026-05-07 19:18 | 45.18443 | 7.53238 | 20910 ft | 378 kts | 140° |
| 2026-05-07 19:18 | 45.16517 | 7.55703 | 20528 ft | 376 kts | 140° |
| 2026-05-07 19:18 | 45.14572 | 7.58190 | 20093 ft | 374 kts | 140° |
| 2026-05-07 19:19 | 45.12661 | 7.60632 | 19637 ft | 372 kts | 140° |
| 2026-05-07 19:19 | 45.10735 | 7.63091 | 19165 ft | 368 kts | 140° |
| 2026-05-07 19:19 | 45.08856 | 7.65486 | 18688 ft | 366 kts | 140° |
| 2026-05-07 19:19 | 45.06966 | 7.67893 | 18216 ft | 362 kts | 140° |
| 2026-05-07 19:20 | 45.05104 | 7.70266 | 17756 ft | 359 kts | 140° |
| 2026-05-07 19:20 | 45.03248 | 7.72630 | 17300 ft | 356 kts | 140° |
| 2026-05-07 19:20 | 45.01432 | 7.74938 | 16885 ft | 354 kts | 140° |
| 2026-05-07 19:20 | 44.99603 | 7.77260 | 16454 ft | 351 kts | 140° |
| 2026-05-07 19:21 | 44.97807 | 7.79538 | 16025 ft | 349 kts | 140° |
| 2026-05-07 19:21 | 44.96004 | 7.81821 | 15590 ft | 347 kts | 140° |
| 2026-05-07 19:21 | 44.94215 | 7.84133 | 15104 ft | 346 kts | 135° |
| 2026-05-07 19:21 | 44.92944 | 7.86957 | 14624 ft | 345 kts | 110° |
| 2026-05-07 19:22 | 44.92600 | 7.90236 | 14207 ft | 342 kts | 88° |
| 2026-05-07 19:22 | 44.92754 | 7.93597 | 13784 ft | 340 kts | 86° |
| 2026-05-07 19:22 | 44.92922 | 7.96903 | 13390 ft | 337 kts | 86° |
| 2026-05-07 19:22 | 44.93075 | 8.00173 | 12985 ft | 335 kts | 86° |
| 2026-05-07 19:23 | 44.93216 | 8.03432 | 12576 ft | 333 kts | 86° |
| 2026-05-07 19:23 | 44.93346 | 8.06660 | 12165 ft | 331 kts | 87° |
| 2026-05-07 19:23 | 44.93472 | 8.09906 | 11733 ft | 329 kts | 87° |
| 2026-05-07 19:23 | 44.93593 | 8.13088 | 11319 ft | 326 kts | 87° |
| 2026-05-07 19:24 | 44.93710 | 8.16252 | 10914 ft | 323 kts | 87° |
| 2026-05-07 19:24 | 44.93826 | 8.19414 | 10512 ft | 321 kts | 87° |
| 2026-05-07 19:24 | 44.93940 | 8.22514 | 10309 ft | 309 kts | 87° |
| 2026-05-07 19:24 | 44.94049 | 8.25473 | 10191 ft | 296 kts | 87° |
| 2026-05-07 19:25 | 44.94205 | 8.28313 | 10071 ft | 284 kts | 82° |
| 2026-05-07 19:25 | 44.94559 | 8.30977 | 9910 ft | 275 kts | 76° |
| 2026-05-07 19:25 | 44.95053 | 8.33554 | 9577 ft | 274 kts | 74° |
| 2026-05-07 19:25 | 44.95576 | 8.36146 | 9247 ft | 272 kts | 74° |
| 2026-05-07 19:26 | 44.96090 | 8.38684 | 8927 ft | 271 kts | 74° |
| 2026-05-07 19:26 | 44.96600 | 8.41222 | 8609 ft | 269 kts | 74° |
| 2026-05-07 19:26 | 44.97105 | 8.43760 | 8291 ft | 267 kts | 74° |
| 2026-05-07 19:26 | 44.97602 | 8.46266 | 7978 ft | 265 kts | 75° |
| 2026-05-07 19:27 | 44.98101 | 8.48789 | 7665 ft | 263 kts | 75° |
| 2026-05-07 19:27 | 44.98590 | 8.51267 | 7358 ft | 262 kts | 75° |
| 2026-05-07 19:27 | 44.99076 | 8.53731 | 7053 ft | 261 kts | 75° |
| 2026-05-07 19:27 | 44.99556 | 8.56167 | 6750 ft | 259 kts | 75° |
| 2026-05-07 19:28 | 45.00029 | 8.58613 | 6446 ft | 257 kts | 76° |
| 2026-05-07 19:28 | 45.00403 | 8.61069 | 6143 ft | 256 kts | 79° |
| 2026-05-07 19:28 | 45.00744 | 8.63531 | 5838 ft | 254 kts | 79° |
| 2026-05-07 19:28 | 45.01079 | 8.65980 | 5536 ft | 253 kts | 80° |
| 2026-05-07 19:29 | 45.01411 | 8.68405 | 5236 ft | 251 kts | 79° |
| 2026-05-07 19:29 | 45.01735 | 8.70770 | 5131 ft | 240 kts | 79° |
| 2026-05-07 19:29 | 45.02046 | 8.73032 | 5056 ft | 229 kts | 79° |
| 2026-05-07 19:29 | 45.02347 | 8.75225 | 4984 ft | 228 kts | 79° |
| 2026-05-07 19:30 | 45.02648 | 8.77423 | 4988 ft | 228 kts | 79° |
| 2026-05-07 19:30 | 45.02953 | 8.79654 | 4994 ft | 229 kts | 79° |
| 2026-05-07 19:30 | 45.03254 | 8.81859 | 5022 ft | 229 kts | 79° |
| 2026-05-07 19:30 | 45.03553 | 8.84042 | 5039 ft | 229 kts | 79° |
| 2026-05-07 19:31 | 45.03894 | 8.86235 | 5048 ft | 229 kts | 70° |
| 2026-05-07 19:31 | 45.04865 | 8.88010 | 5047 ft | 230 kts | 29° |
| 2026-05-07 19:31 | 45.06389 | 8.88503 | 5039 ft | 227 kts | 352° |
| 2026-05-07 19:31 | 45.07888 | 8.88055 | 5030 ft | 212 kts | 346° |
| 2026-05-07 19:32 | 45.09287 | 8.87605 | 5017 ft | 205 kts | 347° |
| 2026-05-07 19:32 | 45.10684 | 8.87189 | 5014 ft | 205 kts | 347° |
| 2026-05-07 19:32 | 45.12098 | 8.86789 | 4983 ft | 205 kts | 348° |
| 2026-05-07 19:32 | 45.13495 | 8.86404 | 4967 ft | 205 kts | 348° |
| 2026-05-07 19:33 | 45.14901 | 8.86021 | 4955 ft | 205 kts | 348° |
| 2026-05-07 19:33 | 45.16291 | 8.85643 | 4947 ft | 205 kts | 348° |
| 2026-05-07 19:33 | 45.17697 | 8.85261 | 4970 ft | 205 kts | 348° |
| 2026-05-07 19:33 | 45.19105 | 8.84878 | 4985 ft | 205 kts | 348° |
| 2026-05-07 19:34 | 45.20518 | 8.84495 | 4993 ft | 205 kts | 348° |
| 2026-05-07 19:34 | 45.21912 | 8.84089 | 4999 ft | 205 kts | 345° |
| 2026-05-07 19:34 | 45.23301 | 8.83579 | 5003 ft | 205 kts | 344° |
| 2026-05-07 19:34 | 45.24675 | 8.83070 | 5005 ft | 205 kts | 345° |
| 2026-05-07 19:35 | 45.26078 | 8.82579 | 5006 ft | 205 kts | 346° |
| 2026-05-07 19:35 | 45.27462 | 8.82125 | 5007 ft | 205 kts | 346° |
| 2026-05-07 19:35 | 45.28859 | 8.81693 | 5011 ft | 205 kts | 347° |
| 2026-05-07 19:35 | 45.30268 | 8.81279 | 5012 ft | 205 kts | 348° |
| 2026-05-07 19:36 | 45.31663 | 8.80884 | 5004 ft | 205 kts | 348° |
| 2026-05-07 19:36 | 45.33078 | 8.80494 | 4765 ft | 206 kts | 348° |
| 2026-05-07 19:36 | 45.34484 | 8.80113 | 4503 ft | 205 kts | 348° |
| 2026-05-07 19:36 | 45.35865 | 8.79742 | 4261 ft | 203 kts | 349° |
| 2026-05-07 19:37 | 45.37254 | 8.79370 | 4040 ft | 200 kts | 349° |
| 2026-05-07 19:37 | 45.38618 | 8.79003 | 3819 ft | 200 kts | 348° |
| 2026-05-07 19:37 | 45.39978 | 8.78638 | 3602 ft | 199 kts | 348° |
| 2026-05-07 19:37 | 45.41341 | 8.78266 | 3375 ft | 199 kts | 348° |
| 2026-05-07 19:38 | 45.42693 | 8.77896 | 3146 ft | 198 kts | 348° |
| 2026-05-07 19:38 | 45.44056 | 8.77522 | 3034 ft | 197 kts | 348° |
| 2026-05-07 19:38 | 45.45396 | 8.77155 | 3027 ft | 198 kts | 348° |
| 2026-05-07 19:38 | 45.46746 | 8.76785 | 3022 ft | 198 kts | 348° |
| 2026-05-07 19:39 | 45.48096 | 8.76413 | 3020 ft | 198 kts | 348° |
| 2026-05-07 19:39 | 45.49454 | 8.76040 | 3051 ft | 193 kts | 348° |
| 2026-05-07 19:39 | 45.50727 | 8.75689 | 2883 ft | 185 kts | 348° |
| 2026-05-07 19:39 | 45.51960 | 8.75350 | 2607 ft | 175 kts | 348° |
| 2026-05-07 19:40 | 45.53115 | 8.75032 | 2354 ft | 164 kts | 348° |
| 2026-05-07 19:40 | 45.54207 | 8.74731 | 2138 ft | 152 kts | 348° |
| 2026-05-07 19:40 | 45.55220 | 8.74451 | 1939 ft | 149 kts | 348° |
| 2026-05-07 19:40 | 45.56244 | 8.74167 | 1771 ft | 151 kts | 348° |
| 2026-05-07 19:41 | 45.57301 | 8.73876 | 1573 ft | 156 kts | 348° |
| 2026-05-07 19:41 | 45.58347 | 8.73585 | 1351 ft | 150 kts | 348° |
| 2026-05-07 19:41 | 45.59349 | 8.73309 | 1147 ft | 143 kts | 349° |
| 2026-05-07 19:41 | 45.60302 | 8.73046 | 956 ft | 137 kts | 349° |
| 2026-05-07 19:42 | 45.61235 | 8.72788 | 782 ft | 135 kts | 349° |
| 2026-05-07 19:42 | 45.62120 | 8.72543 | 719 ft | 108 kts | 349° |
| 2026-05-07 19:42 | 45.62611 | 8.72400 | 729 ft | 55 kts | 348° |
| 2026-05-07 19:42 | 45.62951 | 8.72311 | 736 ft | 37 kts | 347° |
| 2026-05-07 19:43 | 45.63048 | 8.72162 | 738 ft | 19 kts | 249° |
| 2026-05-07 19:43 | 45.63006 | 8.71990 | 738 ft | 18 kts | 254° |
| 2026-05-07 19:43 | 45.62975 | 8.71821 | 738 ft | 17 kts | 259° |
| 2026-05-07 19:43 | 45.62883 | 8.71772 | 737 ft | 16 kts | 171° |
| 2026-05-07 19:44 | 45.62763 | 8.71805 | 735 ft | 18 kts | 168° |
| 2026-05-07 19:44 | 45.62646 | 8.71806 | 734 ft | 16 kts | 232° |
| 2026-05-07 19:44 | 45.62627 | 8.71675 | 734 ft | 11 kts | 259° |
| 2026-05-07 19:44 | 45.62632 | 8.71581 | 734 ft | 9 kts | 326° |
| 2026-05-07 19:45 | 45.62681 | 8.71566 | 735 ft | 4 kts | 350° |
| 2026-05-07 19:45 | 45.62693 | 8.71563 | 735 ft | 0 kts | 350° |